createdAt,value
2022-12-06T00:01:47.029Z,142.10
2022-12-06T00:06:53.527Z,140.80
2022-12-06T00:11:57.553Z,156.27
2022-12-06T00:17:00.862Z,140.67
2022-12-06T00:22:04.116Z,146.97
2022-12-06T00:27:07.389Z,136.87
2022-12-06T05:31:10.563Z,48.77
2022-12-06T05:36:16.047Z,46.70
2022-12-06T05:41:20.122Z,46.37
2022-12-06T05:46:23.674Z,48.27
2022-12-06T05:51:26.816Z,47.27
2022-12-06T05:56:30.122Z,51.97
2022-12-06T06:01:33.352Z,43.53
2022-12-06T06:06:36.932Z,40.80
2022-12-06T06:11:40.223Z,48.20
2022-12-06T06:16:43.350Z,49.57
2022-12-06T06:21:47.108Z,53.30
2022-12-06T06:26:50.004Z,53.17
2022-12-06T06:31:52.969Z,63.30
2022-12-06T06:36:56.658Z,48.27
2022-12-06T06:42:00.010Z,64.27
2022-12-06T06:47:03.134Z,59.90
2022-12-06T06:52:06.330Z,59.37
2022-12-06T06:57:15.847Z,59.77
2022-12-06T07:02:20.860Z,54.50
2022-12-06T07:07:24.284Z,61.73
2022-12-06T07:12:27.102Z,72.33
2022-12-06T07:17:30.305Z,60.17
2022-12-06T07:22:33.630Z,61.00
2022-12-06T07:27:37.164Z,58.23
2022-12-06T07:32:40.037Z,55.97
2022-12-06T07:37:44.204Z,51.13
2022-12-06T07:43:05.915Z,62.27
2022-12-06T07:48:11.384Z,65.30
2022-12-06T07:53:14.979Z,56.57
2022-12-06T07:58:18.338Z,58.17
2022-12-06T08:03:21.750Z,52.47
2022-12-06T08:08:28.458Z,52.17
2022-12-06T08:13:32.792Z,54.00
2022-12-06T08:18:37.617Z,66.40
2022-12-06T08:23:41.028Z,56.70
2022-12-06T08:28:44.554Z,52.53
2022-12-06T08:33:48.167Z,53.17
2022-12-06T08:38:52.364Z,57.43
2022-12-06T08:43:56.651Z,69.10
2022-12-06T08:48:59.882Z,76.67
2022-12-06T08:54:04.204Z,70.17
2022-12-06T08:59:07.751Z,77.97
2022-12-06T09:04:11.965Z,74.73
2022-12-06T09:09:17.323Z,77.90
2022-12-06T09:14:22.263Z,65.53
2022-12-06T09:19:28.758Z,58.43
2022-12-06T09:24:32.316Z,46.63
2022-12-06T09:29:40.815Z,42.80
2022-12-06T09:34:44.715Z,46.23
2022-12-06T09:39:54.394Z,49.77
2022-12-06T09:45:16.180Z,37.87
2022-12-06T09:50:31.583Z,38.53
2022-12-06T09:55:44.322Z,38.00
2022-12-06T10:01:00.587Z,39.37
2022-12-06T10:06:08.865Z,39.60
2022-12-06T10:11:17.900Z,47.00
2022-12-06T10:16:45.327Z,46.97
2022-12-06T10:22:17.278Z,56.63
2022-12-06T10:27:45.093Z,52.30
2022-12-06T10:32:56.216Z,48.07
2022-12-06T10:38:17.465Z,37.23
2022-12-06T10:43:53.174Z,33.93
2022-12-06T10:49:04.841Z,31.93
2022-12-06T10:54:33.221Z,21.70
2022-12-06T11:00:11.834Z,14.97
2022-12-06T11:05:42.581Z,20.77
2022-12-06T11:10:46.923Z,22.53
2022-12-06T11:15:55.854Z,20.70
2022-12-06T11:21:18.219Z,8.60
2022-12-06T11:26:37.618Z,6.80
2022-12-06T11:31:47.489Z,9.03
2022-12-06T11:36:58.223Z,7.80
2022-12-06T11:42:04.664Z,10.80
2022-12-06T11:47:10.987Z,8.03
2022-12-06T11:52:29.749Z,8.93
2022-12-06T11:57:37.729Z,8.87
2022-12-06T12:02:42.619Z,11.97
2022-12-06T12:07:56.098Z,10.97
2022-12-06T12:13:29.426Z,8.90
2022-12-06T12:18:37.663Z,12.87
2022-12-06T12:23:48.282Z,12.13
2022-12-06T12:29:08.619Z,13.20
2022-12-06T12:34:28.993Z,15.17
2022-12-06T12:39:39.220Z,13.30
2022-12-06T12:44:46.759Z,16.30
2022-12-06T12:50:18.737Z,15.83
2022-12-06T12:55:24.653Z,22.20
2022-12-06T13:00:35.821Z,20.17
2022-12-06T13:05:46.538Z,19.73
2022-12-06T13:10:58.461Z,29.20
2022-12-06T13:16:08.917Z,24.93
2022-12-06T13:21:36.325Z,17.93
2022-12-06T13:26:48.748Z,17.57
2022-12-06T13:31:53.670Z,16.37
2022-12-06T13:36:58.383Z,18.30
2022-12-06T13:42:19.125Z,21.20
2022-12-06T13:47:28.596Z,16.93
2022-12-06T13:53:00.030Z,16.87
2022-12-06T13:58:03.245Z,21.07
2022-12-06T14:03:21.264Z,17.77
2022-12-06T14:08:41.605Z,22.60
2022-12-06T14:13:55.771Z,15.20
2022-12-06T14:18:59.607Z,15.90
2022-12-06T14:24:04.592Z,19.83
2022-12-06T14:29:22.194Z,15.33
2022-12-06T14:34:32.389Z,17.83
2022-12-06T14:39:35.768Z,17.50
2022-12-06T14:44:39.207Z,17.20
2022-12-06T14:50:00.987Z,16.80
2022-12-06T14:55:17.982Z,19.00
2022-12-06T15:00:31.677Z,18.77
2022-12-06T15:05:35.384Z,15.43
2022-12-06T15:10:38.688Z,17.60
2022-12-06T15:15:46.049Z,13.17
2022-12-06T15:20:50.269Z,12.53
2022-12-06T15:25:53.749Z,17.23
2022-12-06T15:30:57.167Z,29.07
2022-12-06T15:36:00.636Z,25.80
2022-12-06T15:41:04.320Z,25.80
2022-12-06T15:46:07.591Z,29.87
2022-12-06T15:51:20.192Z,20.93
2022-12-06T15:56:25.729Z,21.57
2022-12-06T16:01:33.801Z,17.23
2022-12-06T16:06:36.921Z,14.93
2022-12-06T16:11:40.874Z,15.53
2022-12-06T16:16:44.350Z,22.37
2022-12-06T16:21:56.097Z,15.77
2022-12-06T16:26:59.998Z,17.43
2022-12-06T16:32:03.084Z,14.83
2022-12-06T16:37:06.843Z,14.97
2022-12-06T16:42:09.839Z,17.20
2022-12-06T16:47:14.291Z,22.30
2022-12-06T16:52:17.931Z,24.57
2022-12-06T16:57:21.217Z,24.00
2022-12-06T17:02:29.636Z,27.50
2022-12-06T17:07:39.255Z,31.43
2022-12-06T17:12:43.518Z,19.23
2022-12-06T17:17:47.071Z,18.43
2022-12-06T17:22:50.517Z,15.33
2022-12-06T17:27:53.620Z,12.77
2022-12-06T17:32:57.181Z,16.27
2022-12-06T17:38:00.605Z,15.80
2022-12-06T17:43:04.256Z,17.20
2022-12-06T17:48:07.503Z,19.87
2022-12-06T17:53:10.815Z,20.90
2022-12-06T17:58:14.147Z,16.77
2022-12-06T18:03:17.566Z,18.70
2022-12-06T18:08:20.781Z,23.30
2022-12-06T18:13:24.180Z,17.83
2022-12-06T18:18:27.831Z,11.43
2022-12-06T18:23:31.042Z,13.00
2022-12-06T18:28:34.550Z,12.70
2022-12-06T18:33:39.262Z,14.80
2022-12-06T18:38:43.649Z,22.17
2022-12-06T18:43:47.878Z,29.70
2022-12-06T18:48:53.592Z,26.63
2022-12-06T18:53:58.518Z,32.23
2022-12-06T18:59:04.101Z,26.63
2022-12-06T19:04:09.441Z,26.37
2022-12-06T19:09:16.086Z,26.33
2022-12-06T19:14:19.687Z,23.73
2022-12-06T19:19:25.142Z,23.47
2022-12-06T19:24:30.124Z,24.77
2022-12-06T19:29:33.533Z,23.87
2022-12-06T19:34:37.107Z,22.07
2022-12-06T19:39:40.279Z,29.23
2022-12-06T19:44:43.661Z,22.40
2022-12-06T19:49:47.025Z,25.43
2022-12-06T19:54:50.819Z,24.23
2022-12-06T19:59:55.838Z,21.93
2022-12-06T20:04:59.109Z,22.30
2022-12-06T20:10:02.686Z,22.50
2022-12-06T20:15:06.772Z,24.60
2022-12-06T20:20:10.514Z,26.43
2022-12-06T20:25:13.892Z,23.17
2022-12-06T20:30:21.732Z,27.70
2022-12-06T20:35:26.783Z,21.23
2022-12-06T20:40:31.735Z,22.57
2022-12-06T20:45:35.257Z,22.27
2022-12-06T20:50:40.096Z,24.07
2022-12-06T20:55:43.421Z,21.97
2022-12-06T21:00:48.601Z,26.20
2022-12-06T21:06:05.495Z,29.70
2022-12-06T21:11:25.211Z,25.60
2022-12-06T21:16:30.728Z,23.13
2022-12-06T21:21:35.802Z,19.13
2022-12-06T21:26:39.102Z,18.73
2022-12-06T21:31:42.483Z,20.33
2022-12-06T21:36:46.001Z,15.97
2022-12-06T21:41:50.192Z,22.30
2022-12-06T21:46:54.561Z,16.63
2022-12-06T21:52:03.191Z,18.33
2022-12-06T21:57:10.880Z,17.00
2022-12-06T22:02:14.524Z,22.37
2022-12-06T22:07:18.004Z,24.10
2022-12-06T22:12:21.446Z,28.23
2022-12-06T22:17:24.922Z,22.63
2022-12-06T22:22:28.092Z,20.73
2022-12-06T22:27:31.436Z,20.97
2022-12-06T22:32:35.156Z,21.73
2022-12-06T22:37:38.426Z,21.57
2022-12-06T22:42:41.705Z,17.63
2022-12-06T22:47:46.509Z,17.87
2022-12-06T22:52:50.031Z,21.97
2022-12-06T22:57:53.454Z,21.77
2022-12-06T23:02:57.886Z,19.53
2022-12-06T23:08:01.316Z,20.00
2022-12-06T23:13:04.612Z,20.37
2022-12-06T23:18:07.931Z,22.27
2022-12-06T23:23:11.195Z,27.57
2022-12-06T23:28:14.613Z,29.10
2022-12-06T23:33:22.496Z,24.13
2022-12-06T23:38:26.268Z,19.77
2022-12-06T23:43:29.603Z,20.47
2022-12-06T23:48:32.981Z,19.10
2022-12-06T23:53:36.866Z,18.50
2022-12-06T23:58:41.513Z,18.43
